sensor_id;sensor_type;location;lat;lon;timestamp;pressure;altitude;pressure_sealevel;temperature;humidity
9439;BME280;5176;42.622;25.386;2023-04-07T00:00:55;96920.28;;;7.76;55.10
9439;BME280;5176;42.622;25.386;2023-04-07T00:03:23;96918.03;;;7.54;55.02
9439;BME280;5176;42.622;25.386;2023-04-07T00:05:52;96913.34;;;7.45;55.74
9439;BME280;5176;42.622;25.386;2023-04-07T00:08:21;96920.47;;;7.42;55.66
9439;BME280;5176;42.622;25.386;2023-04-07T00:10:52;96915.19;;;7.43;57.28
9439;BME280;5176;42.622;25.386;2023-04-07T00:13:21;96925.63;;;7.43;56.68
9439;BME280;5176;42.622;25.386;2023-04-07T00:15:50;96917.81;;;7.43;56.49
9439;BME280;5176;42.622;25.386;2023-04-07T00:18:19;96912.91;;;7.53;55.25
9439;BME280;5176;42.622;25.386;2023-04-07T00:20:47;96920.06;;;7.49;55.14
9439;BME280;5176;42.622;25.386;2023-04-07T00:23:16;96915.50;;;7.53;55.63
9439;BME280;5176;42.622;25.386;2023-04-07T00:25:47;96912.56;;;7.59;55.36
9439;BME280;5176;42.622;25.386;2023-04-07T00:28:17;96902.72;;;7.64;54.22
9439;BME280;5176;42.622;25.386;2023-04-07T00:30:46;96910.63;;;7.62;54.71
9439;BME280;5176;42.622;25.386;2023-04-07T00:33:15;96905.13;;;7.67;55.98
9439;BME280;5176;42.622;25.386;2023-04-07T00:35:44;96909.50;;;7.67;55.24
9439;BME280;5176;42.622;25.386;2023-04-07T00:38:12;96908.66;;;7.66;53.82
9439;BME280;5176;42.622;25.386;2023-04-07T00:40:41;96912.84;;;7.69;53.80
9439;BME280;5176;42.622;25.386;2023-04-07T00:43:10;96916.16;;;7.72;53.97
9439;BME280;5176;42.622;25.386;2023-04-07T00:45:40;96912.84;;;7.69;53.91
9439;BME280;5176;42.622;25.386;2023-04-07T00:48:09;96916.50;;;7.66;53.27
9439;BME280;5176;42.622;25.386;2023-04-07T00:50:38;96916.41;;;7.68;53.74
9439;BME280;5176;42.622;25.386;2023-04-07T00:53:07;96888.59;;;7.52;53.46
9439;BME280;5176;42.622;25.386;2023-04-07T00:55:36;96921.91;;;7.63;53.40
9439;BME280;5176;42.622;25.386;2023-04-07T00:58:05;96920.88;;;7.65;54.43
9439;BME280;5176;42.622;25.386;2023-04-07T01:00:37;96918.06;;;7.69;54.65
9439;BME280;5176;42.622;25.386;2023-04-07T01:03:17;96913.72;;;7.69;56.05
9439;BME280;5176;42.622;25.386;2023-04-07T01:05:54;96916.25;;;7.71;56.10
9439;BME280;5176;42.622;25.386;2023-04-07T01:08:29;96917.81;;;7.73;53.56
9439;BME280;5176;42.622;25.386;2023-04-07T01:11:07;96913.53;;;7.72;53.47
9439;BME280;5176;42.622;25.386;2023-04-07T01:13:42;96899.06;;;7.67;53.06
9439;BME280;5176;42.622;25.386;2023-04-07T01:16:23;96910.75;;;7.75;54.50
9439;BME280;5176;42.622;25.386;2023-04-07T01:18:57;96903.09;;;7.72;53.87
9439;BME280;5176;42.622;25.386;2023-04-07T01:21:31;96910.19;;;7.70;54.63
9439;BME280;5176;42.622;25.386;2023-04-07T01:24:15;96905.41;;;7.62;56.26
9439;BME280;5176;42.622;25.386;2023-04-07T01:26:54;96917.88;;;7.57;54.68
9439;BME280;5176;42.622;25.386;2023-04-07T01:29:33;96907.88;;;7.34;51.14
9439;BME280;5176;42.622;25.386;2023-04-07T01:32:04;96911.41;;;7.33;53.18
9439;BME280;5176;42.622;25.386;2023-04-07T01:34:34;96914.84;;;7.33;51.83
9439;BME280;5176;42.622;25.386;2023-04-07T01:37:06;96914.47;;;7.25;51.16
9439;BME280;5176;42.622;25.386;2023-04-07T01:39:35;96920.69;;;7.23;52.76
9439;BME280;5176;42.622;25.386;2023-04-07T01:42:06;96911.44;;;7.17;53.65
9439;BME280;5176;42.622;25.386;2023-04-07T01:44:37;96915.81;;;7.17;53.49
9439;BME280;5176;42.622;25.386;2023-04-07T01:47:06;96913.97;;;7.03;53.28
9439;BME280;5176;42.622;25.386;2023-04-07T01:49:36;96923.06;;;6.96;52.10
9439;BME280;5176;42.622;25.386;2023-04-07T01:52:06;96919.00;;;6.90;53.68
9439;BME280;5176;42.622;25.386;2023-04-07T01:54:36;96924.97;;;6.92;52.53
9439;BME280;5176;42.622;25.386;2023-04-07T01:57:05;96916.81;;;6.82;53.36
9439;BME280;5176;42.622;25.386;2023-04-07T01:59:35;96899.94;;;6.90;54.25
9439;BME280;5176;42.622;25.386;2023-04-07T02:02:05;96907.66;;;6.75;53.79
9439;BME280;5176;42.622;25.386;2023-04-07T02:04:36;96908.63;;;6.73;53.51
9439;BME280;5176;42.622;25.386;2023-04-07T02:07:08;96909.56;;;6.72;54.73
9439;BME280;5176;42.622;25.386;2023-04-07T02:09:40;96905.44;;;6.68;54.22
9439;BME280;5176;42.622;25.386;2023-04-07T02:12:12;96911.94;;;6.76;54.89
9439;BME280;5176;42.622;25.386;2023-04-07T02:14:45;96912.19;;;6.88;55.29
9439;BME280;5176;42.622;25.386;2023-04-07T02:17:15;96913.84;;;6.89;54.89
9439;BME280;5176;42.622;25.386;2023-04-07T02:19:45;96912.94;;;6.90;54.49
9439;BME280;5176;42.622;25.386;2023-04-07T02:22:15;96913.94;;;6.87;53.87
9439;BME280;5176;42.622;25.386;2023-04-07T02:24:43;96907.28;;;6.81;54.24
9439;BME280;5176;42.622;25.386;2023-04-07T02:27:12;96913.00;;;6.88;54.22
9439;BME280;5176;42.622;25.386;2023-04-07T02:29:41;96913.53;;;6.95;54.56
9439;BME280;5176;42.622;25.386;2023-04-07T02:32:12;96917.97;;;6.93;55.08
9439;BME280;5176;42.622;25.386;2023-04-07T02:34:41;96917.97;;;6.93;54.93
9439;BME280;5176;42.622;25.386;2023-04-07T02:37:10;96905.47;;;6.83;53.99
9439;BME280;5176;42.622;25.386;2023-04-07T02:39:38;96913.59;;;6.77;54.21
9439;BME280;5176;42.622;25.386;2023-04-07T02:42:09;96922.50;;;6.73;54.58
9439;BME280;5176;42.622;25.386;2023-04-07T02:44:38;96923.44;;;6.72;54.79
9439;BME280;5176;42.622;25.386;2023-04-07T02:47:07;96922.34;;;6.76;54.89
9439;BME280;5176;42.622;25.386;2023-04-07T02:49:38;96925.78;;;6.77;54.73
9439;BME280;5176;42.622;25.386;2023-04-07T02:52:06;96924.78;;;6.79;54.99
9439;BME280;5176;42.622;25.386;2023-04-07T02:54:35;96928.31;;;6.78;54.64
9439;BME280;5176;42.622;25.386;2023-04-07T02:57:03;96925.94;;;6.74;55.21
9439;BME280;5176;42.622;25.386;2023-04-07T02:59:33;96925.31;;;6.53;54.89
9439;BME280;5176;42.622;25.386;2023-04-07T03:02:02;96916.75;;;6.51;55.52
9439;BME280;5176;42.622;25.386;2023-04-07T03:04:31;96922.56;;;6.56;56.45
9439;BME280;5176;42.622;25.386;2023-04-07T03:07:01;96920.50;;;6.63;56.20
9439;BME280;5176;42.622;25.386;2023-04-07T03:09:31;96929.19;;;6.62;56.30
9439;BME280;5176;42.622;25.386;2023-04-07T03:12:00;96934.25;;;6.49;57.25
9439;BME280;5176;42.622;25.386;2023-04-07T03:14:29;96932.84;;;6.42;58.09
9439;BME280;5176;42.622;25.386;2023-04-07T03:16:58;96939.19;;;6.53;57.63
9439;BME280;5176;42.622;25.386;2023-04-07T03:19:27;96938.56;;;6.48;58.46
9439;BME280;5176;42.622;25.386;2023-04-07T03:21:56;96939.06;;;6.39;59.55
9439;BME280;5176;42.622;25.386;2023-04-07T03:24:26;96938.75;;;6.45;60.15
9439;BME280;5176;42.622;25.386;2023-04-07T03:26:55;96948.00;;;6.51;59.58
9439;BME280;5176;42.622;25.386;2023-04-07T03:29:24;96944.06;;;6.60;60.15
9439;BME280;5176;42.622;25.386;2023-04-07T03:31:53;96943.94;;;6.63;59.78
9439;BME280;5176;42.622;25.386;2023-04-07T03:34:22;96944.06;;;6.60;59.64
9439;BME280;5176;42.622;25.386;2023-04-07T03:36:50;96948.03;;;6.67;59.53
9439;BME280;5176;42.622;25.386;2023-04-07T03:39:19;96955.94;;;6.65;59.88
9439;BME280;5176;42.622;25.386;2023-04-07T03:41:50;96952.50;;;6.65;60.10
9439;BME280;5176;42.622;25.386;2023-04-07T03:44:19;96952.41;;;6.66;59.59
9439;BME280;5176;42.622;25.386;2023-04-07T03:46:48;96947.19;;;6.66;60.13
9439;BME280;5176;42.622;25.386;2023-04-07T03:49:17;96951.41;;;6.69;60.60
9439;BME280;5176;42.622;25.386;2023-04-07T03:51:46;96952.50;;;6.65;60.46
9439;BME280;5176;42.622;25.386;2023-04-07T03:54:14;96959.28;;;6.67;61.12
9439;BME280;5176;42.622;25.386;2023-04-07T03:56:44;96959.56;;;6.63;59.37
9439;BME280;5176;42.622;25.386;2023-04-07T03:59:14;96969.81;;;6.48;57.96
9439;BME280;5176;42.622;25.386;2023-04-07T04:01:42;96965.78;;;6.43;59.02
9439;BME280;5176;42.622;25.386;2023-04-07T04:04:11;96971.28;;;6.54;59.07
9439;BME280;5176;42.622;25.386;2023-04-07T04:06:40;96969.69;;;6.51;58.07
9439;BME280;5176;42.622;25.386;2023-04-07T04:09:09;96976.13;;;6.44;56.73
9439;BME280;5176;42.622;25.386;2023-04-07T04:11:37;96972.69;;;6.44;57.01
9439;BME280;5176;42.622;25.386;2023-04-07T04:14:06;96981.63;;;6.55;57.06
9439;BME280;5176;42.622;25.386;2023-04-07T04:16:36;96987.50;;;6.59;57.47
9439;BME280;5176;42.622;25.386;2023-04-07T04:19:04;96985.50;;;6.64;57.35
9439;BME280;5176;42.622;25.386;2023-04-07T04:21:33;96987.09;;;6.67;56.47
9439;BME280;5176;42.622;25.386;2023-04-07T04:24:01;96987.28;;;6.64;56.34
9439;BME280;5176;42.622;25.386;2023-04-07T04:26:30;96988.25;;;6.61;55.94
9439;BME280;5176;42.622;25.386;2023-04-07T04:28:58;96985.75;;;6.60;56.26
9439;BME280;5176;42.622;25.386;2023-04-07T04:31:31;96992.31;;;6.67;57.70
9439;BME280;5176;42.622;25.386;2023-04-07T04:34:02;96990.84;;;6.78;58.36
9439;BME280;5176;42.622;25.386;2023-04-07T04:36:30;96992.75;;;6.75;57.38
9439;BME280;5176;42.622;25.386;2023-04-07T04:39:01;97010.84;;;6.78;57.13
9439;BME280;5176;42.622;25.386;2023-04-07T04:41:29;97002.69;;;6.84;56.91
9439;BME280;5176;42.622;25.386;2023-04-07T04:44:00;96993.66;;;6.74;58.07
9439;BME280;5176;42.622;25.386;2023-04-07T04:46:29;97011.50;;;6.81;57.66
9439;BME280;5176;42.622;25.386;2023-04-07T04:48:58;97011.19;;;6.88;59.45
9439;BME280;5176;42.622;25.386;2023-04-07T04:51:29;97015.16;;;6.95;59.20
9439;BME280;5176;42.622;25.386;2023-04-07T04:53:57;97021.66;;;7.03;59.59
9439;BME280;5176;42.622;25.386;2023-04-07T04:56:26;97019.72;;;7.07;58.61
9439;BME280;5176;42.622;25.386;2023-04-07T04:58:56;97023.75;;;7.13;60.30
9439;BME280;5176;42.622;25.386;2023-04-07T05:01:25;97014.34;;;7.10;60.52
9439;BME280;5176;42.622;25.386;2023-04-07T05:03:54;97019.16;;;7.18;60.60
9439;BME280;5176;42.622;25.386;2023-04-07T05:06:23;97026.56;;;7.25;60.28
9439;BME280;5176;42.622;25.386;2023-04-07T05:08:55;97022.03;;;7.29;61.80
9439;BME280;5176;42.622;25.386;2023-04-07T05:11:23;97025.13;;;7.20;62.64
9439;BME280;5176;42.622;25.386;2023-04-07T05:13:52;97023.53;;;7.17;63.94
9439;BME280;5176;42.622;25.386;2023-04-07T05:16:21;97028.97;;;7.13;63.86
9439;BME280;5176;42.622;25.386;2023-04-07T05:18:50;97027.13;;;7.15;61.90
9439;BME280;5176;42.622;25.386;2023-04-07T05:21:19;97037.75;;;7.27;62.85
9439;BME280;5176;42.622;25.386;2023-04-07T05:23:47;97038.34;;;7.32;63.08
9439;BME280;5176;42.622;25.386;2023-04-07T05:26:18;97037.91;;;7.40;62.12
9439;BME280;5176;42.622;25.386;2023-04-07T05:28:47;97039.34;;;7.46;61.40
9439;BME280;5176;42.622;25.386;2023-04-07T05:31:16;97042.06;;;7.44;59.38
9439;BME280;5176;42.622;25.386;2023-04-07T05:33:44;97041.72;;;7.50;59.68
9439;BME280;5176;42.622;25.386;2023-04-07T05:36:13;97048.09;;;7.60;59.02
9439;BME280;5176;42.622;25.386;2023-04-07T05:38:42;97044.91;;;7.55;58.96
9439;BME280;5176;42.622;25.386;2023-04-07T05:41:11;97045.16;;;7.67;59.98
9439;BME280;5176;42.622;25.386;2023-04-07T05:43:41;97044.06;;;7.86;57.79
9439;BME280;5176;42.622;25.386;2023-04-07T05:46:12;97043.81;;;7.91;57.33
9439;BME280;5176;42.622;25.386;2023-04-07T05:48:40;97046.91;;;7.98;57.19
9439;BME280;5176;42.622;25.386;2023-04-07T05:51:09;97051.53;;;7.92;55.17
9439;BME280;5176;42.622;25.386;2023-04-07T05:53:38;97054.47;;;8.02;54.24
9439;BME280;5176;42.622;25.386;2023-04-07T05:56:06;97049.94;;;8.06;53.49
9439;BME280;5176;42.622;25.386;2023-04-07T05:58:36;97028.06;;;7.61;52.65
9439;BME280;5176;42.622;25.386;2023-04-07T06:01:07;97047.59;;;7.85;52.87
9439;BME280;5176;42.622;25.386;2023-04-07T06:03:36;97043.38;;;7.99;52.70
9439;BME280;5176;42.622;25.386;2023-04-07T06:06:05;97047.84;;;7.97;52.72
9439;BME280;5176;42.622;25.386;2023-04-07T06:08:34;97053.56;;;8.03;54.18
9439;BME280;5176;42.622;25.386;2023-04-07T06:11:03;97050.53;;;7.95;52.48
9439;BME280;5176;42.622;25.386;2023-04-07T06:13:32;97054.16;;;7.92;53.33
9439;BME280;5176;42.622;25.386;2023-04-07T06:16:02;97058.69;;;8.05;53.09
9439;BME280;5176;42.622;25.386;2023-04-07T06:18:33;97057.31;;;8.13;51.33
9439;BME280;5176;42.622;25.386;2023-04-07T06:21:03;97059.84;;;8.15;50.74
9439;BME280;5176;42.622;25.386;2023-04-07T06:23:33;97049.97;;;8.20;50.40
9439;BME280;5176;42.622;25.386;2023-04-07T06:26:02;97058.84;;;8.17;48.41
9439;BME280;5176;42.622;25.386;2023-04-07T06:28:31;97066.69;;;8.02;48.25
9439;BME280;5176;42.622;25.386;2023-04-07T06:31:00;97060.81;;;7.98;49.39
9439;BME280;5176;42.622;25.386;2023-04-07T06:33:29;97069.97;;;8.05;48.85
9439;BME280;5176;42.622;25.386;2023-04-07T06:36:00;97086.75;;;7.85;47.24
9439;BME280;5176;42.622;25.386;2023-04-07T06:38:29;97073.44;;;7.90;48.00
9439;BME280;5176;42.622;25.386;2023-04-07T06:40:59;97014.69;;;7.67;47.46
9439;BME280;5176;42.622;25.386;2023-04-07T06:43:28;97076.22;;;8.03;47.80
9439;BME280;5176;42.622;25.386;2023-04-07T06:45:57;97089.94;;;7.90;48.63
9439;BME280;5176;42.622;25.386;2023-04-07T06:48:26;97081.44;;;7.87;49.32
9439;BME280;5176;42.622;25.386;2023-04-07T06:50:54;97089.28;;;8.03;48.91
9439;BME280;5176;42.622;25.386;2023-04-07T06:53:25;97095.69;;;8.27;49.84
9439;BME280;5176;42.622;25.386;2023-04-07T06:56:02;97084.94;;;8.17;48.37
9439;BME280;5176;42.622;25.386;2023-04-07T06:58:31;97090.09;;;8.19;49.38
9439;BME280;5176;42.622;25.386;2023-04-07T07:01:00;97098.22;;;8.29;49.97
9439;BME280;5176;42.622;25.386;2023-04-07T07:03:30;97099.75;;;8.33;50.49
9439;BME280;5176;42.622;25.386;2023-04-07T07:06:00;97093.75;;;8.46;51.16
9439;BME280;5176;42.622;25.386;2023-04-07T07:08:31;97098.09;;;8.62;51.05
9439;BME280;5176;42.622;25.386;2023-04-07T07:10:59;97102.56;;;8.60;49.99
9439;BME280;5176;42.622;25.386;2023-04-07T07:13:28;97108.50;;;8.48;50.06
9439;BME280;5176;42.622;25.386;2023-04-07T07:15:57;97104.34;;;8.59;50.16
9439;BME280;5176;42.622;25.386;2023-04-07T07:18:26;97089.81;;;8.69;49.99
9439;BME280;5176;42.622;25.386;2023-04-07T07:20:56;97107.00;;;8.88;48.91
9439;BME280;5176;42.622;25.386;2023-04-07T07:23:24;97113.16;;;8.72;49.54
9439;BME280;5176;42.622;25.386;2023-04-07T07:25:55;97114.94;;;8.72;49.28
9439;BME280;5176;42.622;25.386;2023-04-07T07:28:24;97089.88;;;8.68;49.80
9439;BME280;5176;42.622;25.386;2023-04-07T07:30:54;97118.19;;;8.76;50.12
9439;BME280;5176;42.622;25.386;2023-04-07T07:33:25;97109.44;;;8.77;50.04
9439;BME280;5176;42.622;25.386;2023-04-07T07:35:53;97121.97;;;8.86;49.02
9439;BME280;5176;42.622;25.386;2023-04-07T07:38:23;97110.41;;;8.90;48.90
9439;BME280;5176;42.622;25.386;2023-04-07T07:40:55;97115.19;;;9.12;48.08
9439;BME280;5176;42.622;25.386;2023-04-07T07:43:23;97118.38;;;9.17;47.98
9439;BME280;5176;42.622;25.386;2023-04-07T07:45:52;97117.91;;;9.10;48.14
9439;BME280;5176;42.622;25.386;2023-04-07T07:48:20;97114.06;;;9.16;48.17
9439;BME280;5176;42.622;25.386;2023-04-07T07:50:50;97118.06;;;9.21;49.29
9439;BME280;5176;42.622;25.386;2023-04-07T07:53:19;97121.56;;;9.50;48.27
9439;BME280;5176;42.622;25.386;2023-04-07T07:55:49;97117.50;;;9.88;48.88
9439;BME280;5176;42.622;25.386;2023-04-07T07:58:20;97112.94;;;10.18;48.11
9439;BME280;5176;42.622;25.386;2023-04-07T08:00:49;97112.22;;;10.02;46.67
9439;BME280;5176;42.622;25.386;2023-04-07T08:03:18;97114.41;;;10.49;47.62
9439;BME280;5176;42.622;25.386;2023-04-07T08:05:48;97107.56;;;10.74;46.44
9439;BME280;5176;42.622;25.386;2023-04-07T08:08:17;97114.34;;;10.90;46.13
9439;BME280;5176;42.622;25.386;2023-04-07T08:10:46;97125.22;;;11.10;46.20
9439;BME280;5176;42.622;25.386;2023-04-07T08:13:15;97118.22;;;11.10;44.48
9439;BME280;5176;42.622;25.386;2023-04-07T08:15:45;97117.06;;;11.14;44.84
9439;BME280;5176;42.622;25.386;2023-04-07T08:18:14;97124.63;;;11.57;45.40
9439;BME280;5176;42.622;25.386;2023-04-07T08:20:43;97123.13;;;11.66;43.65
9439;BME280;5176;42.622;25.386;2023-04-07T08:23:11;97123.88;;;11.81;43.60
9439;BME280;5176;42.622;25.386;2023-04-07T08:25:40;97121.38;;;11.54;43.59
9439;BME280;5176;42.622;25.386;2023-04-07T08:28:10;97113.06;;;11.09;43.07
9439;BME280;5176;42.622;25.386;2023-04-07T08:30:40;97116.44;;;11.11;44.09
9439;BME280;5176;42.622;25.386;2023-04-07T08:33:10;97110.56;;;11.20;44.70
9439;BME280;5176;42.622;25.386;2023-04-07T08:35:39;97111.38;;;11.08;45.06
9439;BME280;5176;42.622;25.386;2023-04-07T08:38:08;97110.97;;;11.27;45.03
9439;BME280;5176;42.622;25.386;2023-04-07T08:40:37;97107.53;;;11.39;44.17
9439;BME280;5176;42.622;25.386;2023-04-07T08:43:08;97108.66;;;11.35;43.28
9439;BME280;5176;42.622;25.386;2023-04-07T08:45:38;97100.22;;;11.68;43.04
9439;BME280;5176;42.622;25.386;2023-04-07T08:48:14;97106.97;;;12.09;43.14
9439;BME280;5176;42.622;25.386;2023-04-07T08:50:44;97102.75;;;11.82;42.68
9439;BME280;5176;42.622;25.386;2023-04-07T08:53:17;97110.75;;;11.42;43.64
9439;BME280;5176;42.622;25.386;2023-04-07T08:55:50;97107.72;;;11.36;43.73
9439;BME280;5176;42.622;25.386;2023-04-07T08:58:20;97108.34;;;11.52;44.39
9439;BME280;5176;42.622;25.386;2023-04-07T09:00:49;97097.50;;;11.57;43.26
9439;BME280;5176;42.622;25.386;2023-04-07T09:03:22;97097.09;;;11.50;43.76
9439;BME280;5176;42.622;25.386;2023-04-07T09:05:54;97102.38;;;11.25;44.35
9439;BME280;5176;42.622;25.386;2023-04-07T09:08:24;97087.78;;;11.21;44.65
9439;BME280;5176;42.622;25.386;2023-04-07T09:10:53;97092.47;;;11.54;44.76
9439;BME280;5176;42.622;25.386;2023-04-07T09:13:23;97098.66;;;11.91;42.70
9439;BME280;5176;42.622;25.386;2023-04-07T09:15:51;97107.16;;;11.82;42.50
9439;BME280;5176;42.622;25.386;2023-04-07T09:18:22;97109.78;;;11.69;43.59
9439;BME280;5176;42.622;25.386;2023-04-07T09:20:57;97096.47;;;11.85;43.10
9439;BME280;5176;42.622;25.386;2023-04-07T09:23:29;97102.97;;;11.66;42.49
9439;BME280;5176;42.622;25.386;2023-04-07T09:26:09;97103.94;;;11.40;43.22
9439;BME280;5176;42.622;25.386;2023-04-07T09:28:48;97098.59;;;11.29;42.58
9439;BME280;5176;42.622;25.386;2023-04-07T09:31:17;97098.50;;;11.17;44.07
9439;BME280;5176;42.622;25.386;2023-04-07T09:33:49;97099.44;;;11.29;43.61
9439;BME280;5176;42.622;25.386;2023-04-07T09:36:17;97094.59;;;11.49;43.16
9439;BME280;5176;42.622;25.386;2023-04-07T09:38:47;97102.03;;;11.42;42.36
9439;BME280;5176;42.622;25.386;2023-04-07T09:41:16;97096.38;;;11.35;41.76
9439;BME280;5176;42.622;25.386;2023-04-07T09:43:45;97095.00;;;11.30;42.08
9439;BME280;5176;42.622;25.386;2023-04-07T09:46:15;97093.56;;;11.38;43.11
9439;BME280;5176;42.622;25.386;2023-04-07T09:48:45;97099.69;;;11.88;42.27
9439;BME280;5176;42.622;25.386;2023-04-07T09:51:16;97088.13;;;11.78;41.64
9439;BME280;5176;42.622;25.386;2023-04-07T09:53:47;97081.94;;;11.92;41.09
9439;BME280;5176;42.622;25.386;2023-04-07T09:56:17;97092.97;;;12.21;40.91
9439;BME280;5176;42.622;25.386;2023-04-07T09:58:49;97096.75;;;11.93;40.99
9439;BME280;5176;42.622;25.386;2023-04-07T10:01:20;97095.94;;;12.04;41.72
9439;BME280;5176;42.622;25.386;2023-04-07T10:03:49;97101.13;;;12.05;41.46
9439;BME280;5176;42.622;25.386;2023-04-07T10:06:20;97094.59;;;12.11;41.10
9439;BME280;5176;42.622;25.386;2023-04-07T10:08:49;97098.81;;;12.00;41.59
9439;BME280;5176;42.622;25.386;2023-04-07T10:11:18;97094.00;;;11.94;41.33
9439;BME280;5176;42.622;25.386;2023-04-07T10:13:47;97096.66;;;11.82;41.51
9439;BME280;5176;42.622;25.386;2023-04-07T10:16:17;97094.97;;;11.68;41.10
9439;BME280;5176;42.622;25.386;2023-04-07T10:18:47;97098.66;;;11.78;41.37
9439;BME280;5176;42.622;25.386;2023-04-07T10:21:17;97087.63;;;12.10;40.61
9439;BME280;5176;42.622;25.386;2023-04-07T10:23:59;97086.25;;;12.65;40.73
9439;BME280;5176;42.622;25.386;2023-04-07T10:26:37;97087.16;;;12.64;40.05
9439;BME280;5176;42.622;25.386;2023-04-07T10:29:10;97078.47;;;12.74;40.10
9439;BME280;5176;42.622;25.386;2023-04-07T10:31:39;97079.22;;;13.23;40.67
9439;BME280;5176;42.622;25.386;2023-04-07T10:34:09;97082.94;;;13.43;39.48
9439;BME280;5176;42.622;25.386;2023-04-07T10:37:09;97087.75;;;13.38;38.47
9439;BME280;5176;42.622;25.386;2023-04-07T10:39:41;97084.75;;;12.85;39.07
9439;BME280;5176;42.622;25.386;2023-04-07T10:45:11;97091.22;;;12.57;40.15
9439;BME280;5176;42.622;25.386;2023-04-07T10:48:10;97088.31;;;12.48;40.43
9439;BME280;5176;42.622;25.386;2023-04-07T10:50:40;97095.00;;;12.17;40.08
9439;BME280;5176;42.622;25.386;2023-04-07T10:53:10;97087.97;;;12.29;41.32
9439;BME280;5176;42.622;25.386;2023-04-07T10:55:41;97089.56;;;12.32;40.20
9439;BME280;5176;42.622;25.386;2023-04-07T10:58:17;97093.44;;;12.02;40.44
9439;BME280;5176;42.622;25.386;2023-04-07T11:03:59;97091.41;;;12.77;41.12
9439;BME280;5176;42.622;25.386;2023-04-07T11:06:28;97091.09;;;12.93;39.89
9439;BME280;5176;42.622;25.386;2023-04-07T11:08:57;97089.59;;;12.67;39.90
9439;BME280;5176;42.622;25.386;2023-04-07T11:11:37;97093.25;;;12.53;40.14
9439;BME280;5176;42.622;25.386;2023-04-07T11:14:06;97091.44;;;12.53;40.02
9439;BME280;5176;42.622;25.386;2023-04-07T11:16:40;97098.50;;;12.29;39.56
9439;BME280;5176;42.622;25.386;2023-04-07T11:19:09;97093.41;;;12.39;39.93
9439;BME280;5176;42.622;25.386;2023-04-07T11:21:38;97086.44;;;12.62;40.74
9439;BME280;5176;42.622;25.386;2023-04-07T11:24:06;97085.91;;;12.80;38.56
9439;BME280;5176;42.622;25.386;2023-04-07T11:26:39;97080.19;;;12.87;39.36
9439;BME280;5176;42.622;25.386;2023-04-07T11:29:08;97078.81;;;13.05;38.25
9439;BME280;5176;42.622;25.386;2023-04-07T11:31:39;97077.66;;;13.20;38.02
9439;BME280;5176;42.622;25.386;2023-04-07T11:34:08;97081.25;;;13.42;38.55
9439;BME280;5176;42.622;25.386;2023-04-07T11:36:38;97089.41;;;13.61;38.77
9439;BME280;5176;42.622;25.386;2023-04-07T11:39:17;97072.78;;;13.60;39.24
9439;BME280;5176;42.622;25.386;2023-04-07T11:41:49;97079.72;;;13.61;38.59
9439;BME280;5176;42.622;25.386;2023-04-07T11:44:18;97072.28;;;13.33;39.30
9439;BME280;5176;42.622;25.386;2023-04-07T11:46:53;97075.88;;;13.66;38.95
9439;BME280;5176;42.622;25.386;2023-04-07T11:49:23;97071.69;;;13.85;39.00
9439;BME280;5176;42.622;25.386;2023-04-07T11:51:57;97079.09;;;13.80;38.79
9439;BME280;5176;42.622;25.386;2023-04-07T11:54:26;97084.38;;;13.92;38.71
9439;BME280;5176;42.622;25.386;2023-04-07T11:56:57;97085.19;;;13.81;38.76
9439;BME280;5176;42.622;25.386;2023-04-07T11:59:26;97074.28;;;13.97;37.66
9439;BME280;5176;42.622;25.386;2023-04-07T12:01:55;97073.56;;;13.95;37.92
9439;BME280;5176;42.622;25.386;2023-04-07T12:04:24;97067.84;;;13.78;38.45
9439;BME280;5176;42.622;25.386;2023-04-07T12:06:52;97076.34;;;13.82;38.96
9439;BME280;5176;42.622;25.386;2023-04-07T12:09:27;97076.09;;;13.74;38.26
9439;BME280;5176;42.622;25.386;2023-04-07T12:11:58;97073.00;;;13.91;38.09
9439;BME280;5176;42.622;25.386;2023-04-07T12:14:28;97057.69;;;13.62;37.84
9439;BME280;5176;42.622;25.386;2023-04-07T12:16:57;97077.06;;;13.50;37.64
9439;BME280;5176;42.622;25.386;2023-04-07T12:19:30;97065.81;;;13.48;38.69
9439;BME280;5176;42.622;25.386;2023-04-07T12:22:02;97076.72;;;13.66;38.44
9439;BME280;5176;42.622;25.386;2023-04-07T12:24:32;97076.81;;;13.87;38.51
9439;BME280;5176;42.622;25.386;2023-04-07T12:27:02;97076.25;;;13.72;38.27
9439;BME280;5176;42.622;25.386;2023-04-07T12:29:32;97068.44;;;13.71;37.80
9439;BME280;5176;42.622;25.386;2023-04-07T12:32:00;97074.41;;;13.84;37.28
9439;BME280;5176;42.622;25.386;2023-04-07T12:34:29;97078.84;;;13.83;38.28
9439;BME280;5176;42.622;25.386;2023-04-07T12:36:58;97071.94;;;13.71;38.64
9439;BME280;5176;42.622;25.386;2023-04-07T12:39:27;97074.44;;;13.73;37.69
9439;BME280;5176;42.622;25.386;2023-04-07T12:41:56;97070.50;;;13.67;38.74
9439;BME280;5176;42.622;25.386;2023-04-07T12:44:28;97068.94;;;13.65;39.24
9439;BME280;5176;42.622;25.386;2023-04-07T12:46:57;97067.50;;;13.49;39.18
9439;BME280;5176;42.622;25.386;2023-04-07T12:49:25;97075.41;;;13.49;39.39
9439;BME280;5176;42.622;25.386;2023-04-07T12:51:54;97062.97;;;13.40;40.67
9439;BME280;5176;42.622;25.386;2023-04-07T12:54:23;97060.50;;;13.15;40.42
9439;BME280;5176;42.622;25.386;2023-04-07T12:56:52;97079.28;;;13.10;41.72
9439;BME280;5176;42.622;25.386;2023-04-07T12:59:21;97070.06;;;13.16;41.67
9439;BME280;5176;42.622;25.386;2023-04-07T13:01:52;97069.34;;;12.91;41.08
9439;BME280;5176;42.622;25.386;2023-04-07T13:04:21;97073.63;;;12.92;41.95
9439;BME280;5176;42.622;25.386;2023-04-07T13:06:50;97071.47;;;12.86;41.97
9439;BME280;5176;42.622;25.386;2023-04-07T13:09:20;97066.41;;;12.83;40.88
9439;BME280;5176;42.622;25.386;2023-04-07T13:11:49;97067.59;;;12.68;41.31
9439;BME280;5176;42.622;25.386;2023-04-07T13:14:19;97062.06;;;12.60;41.92
9439;BME280;5176;42.622;25.386;2023-04-07T13:16:48;97063.94;;;12.93;41.54
9439;BME280;5176;42.622;25.386;2023-04-07T13:19:19;97070.19;;;13.03;41.87
9439;BME280;5176;42.622;25.386;2023-04-07T13:21:48;97067.06;;;13.09;41.49
9439;BME280;5176;42.622;25.386;2023-04-07T13:24:15;97066.59;;;13.15;41.28
9439;BME280;5176;42.622;25.386;2023-04-07T13:26:44;97071.53;;;13.20;41.37
9439;BME280;5176;42.622;25.386;2023-04-07T13:29:13;97073.22;;;13.21;41.72
9439;BME280;5176;42.622;25.386;2023-04-07T13:31:41;97068.91;;;13.20;41.68
9439;BME280;5176;42.622;25.386;2023-04-07T13:34:10;97077.81;;;12.95;41.74
9439;BME280;5176;42.622;25.386;2023-04-07T13:36:41;97076.03;;;12.95;41.40
9439;BME280;5176;42.622;25.386;2023-04-07T13:39:10;97075.97;;;12.73;41.68